Date,TemperatureHighF,TemperatureAvgF,TemperatureLowF,DewpointHighF,DewpointAvgF,DewpointLowF,HumidityHigh,HumidityAvg,HumidityLow,PressureMaxIn,PressureMinIn,WindSpeedMaxMPH,WindSpeedAvgMPH,GustSpeedMaxMPH,PrecipitationSumIn
2013-3-1,30,28,25,28,25,22,96,90,85,30.20,30.06,19,8,22,0.01
2013-3-2,30,24,16,23,20,12,89,82,65,30.23,30.17,14,7,18,0.00
2013-3-3,32,22,12,21,13,8,89,71,39,30.21,30.12,7,2,10,0.00
2013-3-4,35,30,24,30,26,21,88,83,73,30.14,29.93,18,9,31,0.00
2013-3-5,34,31,27,32,30,26,97,94,86,30.00,29.79,20,7,29,0.10
2013-3-6,31,27,25,29,26,24,96,93,90,30.36,30.01,18,9,25,0.01
2013-3-7,35,30,25,28,25,23,92,83,67,30.45,30.36,8,3,11,0.03
2013-3-8,42,32,23,33,28,21,92,84,71,30.49,30.30,13,5,18,0.00
2013-3-9,47,40,33,41,35,30,89,83,74,30.30,29.83,19,10,22,0.01
2013-3-10,56,50,45,51,46,40,96,87,75,29.85,29.57,28,11,29,0.45
2013-3-11,49,38,32,47,36,29,96,92,86,29.89,29.61,21,11,27,0.02
2013-3-12,38,32,27,32,26,19,93,79,63,30.11,29.90,20,9,30,0.00
2013-3-13,34,27,24,23,20,18,85,75,57,30.39,30.12,22,9,26,0.00
2013-3-14,39,31,22,30,25,20,90,80,64,30.39,30.12,17,6,23,0.00
2013-3-15,53,40,30,46,36,28,93,86,66,30.11,29.68,17,5,19,0.00
2013-3-16,43,35,30,40,32,27,96,89,77,30.12,29.65,16,7,23,0.00
2013-3-17,37,33,29,30,27,24,89,80,71,30.19,29.94,20,9,26,0.00
2013-3-18,38,32,25,35,29,16,97,88,67,29.94,29.68,25,9,28,0.03
2013-3-19,40,29,20,21,16,11,76,58,33,30.17,29.92,21,10,30,0.00
2013-3-20,28,23,17,21,9,-100,79,60,42,30.19,30.09,24,-11,31,0.00
2013-3-21,34,24,13,18,12,8,84,63,40,30.13,30.04,14,4,17,0.00
2013-3-22,43,32,17,24,18,15,92,60,36,30.11,30.02,7,2,13,0.00
2013-3-23,46,36,29,27,24,22,81,63,42,30.12,29.98,17,6,19,0.00
2013-3-24,31,30,28,30,28,25,97,94,78,29.98,29.61,19,11,26,0.00
2013-3-25,35,30,26,32,28,25,97,93,82,30.13,29.71,18,9,24,0.01
2013-3-26,38,34,31,29,27,22,88,77,53,30.31,30.13,14,6,19,0.00
2013-3-27,42,35,30,29,25,21,85,69,46,30.38,30.31,11,4,14,0.00
2013-3-28,49,38,25,34,28,21,86,69,48,30.40,30.30,10,4,12,0.00
2013-3-29,56,44,34,36,32,28,84,64,41,30.33,30.23,7,2,13,0.00
2013-3-30,54,45,33,44,37,30,87,74,55,30.23,29.90,19,6,24,0.00
2013-3-31,60,50,40,46,40,31,95,73,40,29.91,29.77,17,8,26,0.00